createdAt,value
2024-03-05T00:01:26.468Z,5.30
2024-03-05T00:06:31.909Z,6.07
2024-03-05T00:11:35.801Z,5.38
2024-03-05T00:16:39.894Z,5.67
2024-03-05T00:21:45.407Z,5.85
2024-03-05T00:26:49.285Z,6.57
2024-03-05T00:31:53.587Z,6.57
2024-03-05T00:36:59.253Z,6.60
2024-03-05T00:42:05.218Z,6.85
2024-03-05T00:47:09.116Z,7.68
2024-03-05T00:52:15.256Z,7.37
2024-03-05T00:57:19.152Z,7.32
2024-03-05T01:02:24.169Z,7.87
2024-03-05T01:07:29.745Z,7.63
2024-03-05T01:12:33.680Z,7.00
2024-03-05T01:17:37.874Z,6.77
2024-03-05T01:22:43.556Z,7.60
2024-03-05T01:27:47.550Z,7.00
2024-03-05T01:32:53.063Z,7.50
2024-03-05T01:37:58.443Z,7.93
2024-03-05T01:43:02.381Z,7.95
2024-03-05T01:48:07.367Z,7.63
2024-03-05T01:53:16.904Z,7.50
2024-03-05T01:58:21.226Z,7.47
2024-03-05T02:03:25.335Z,7.40
2024-03-05T02:08:31.113Z,8.32
2024-03-05T02:13:35.724Z,7.63
2024-03-05T02:18:39.583Z,7.97
2024-03-05T02:23:44.837Z,6.45
2024-03-05T02:28:50.361Z,7.05
2024-03-05T02:33:55.478Z,7.15
2024-03-05T02:39:00.748Z,7.32
2024-03-05T02:44:05.599Z,8.50
2024-03-05T02:54:15.678Z,7.65
2024-03-05T02:59:20.162Z,7.75
2024-03-05T03:04:24.291Z,7.40
2024-03-05T03:09:30.260Z,8.13
2024-03-05T03:14:34.510Z,7.57
2024-03-05T03:19:39.121Z,6.95
2024-03-05T03:24:44.831Z,7.68
2024-03-05T03:29:48.952Z,6.97
2024-03-05T03:34:53.609Z,6.97
2024-03-05T03:39:58.881Z,7.07
2024-03-05T03:45:02.835Z,7.18
2024-03-05T03:50:09.053Z,6.80
2024-03-05T03:55:14.811Z,7.10
2024-03-05T04:00:20.423Z,6.60
2024-03-05T04:05:26.131Z,7.50
2024-03-05T04:10:31.519Z,7.88
2024-03-05T04:15:35.446Z,7.38
2024-03-05T04:20:39.295Z,7.83
2024-03-05T04:25:45.344Z,7.80
2024-03-05T04:30:50.200Z,7.80
2024-03-05T04:40:59.562Z,7.47
2024-03-05T04:46:03.729Z,7.82
2024-03-05T04:51:11.195Z,7.88
2024-03-05T04:56:16.656Z,7.65
2024-03-05T05:01:20.628Z,7.95
2024-03-05T05:06:24.536Z,8.20
2024-03-05T05:11:30.326Z,7.30
2024-03-05T05:16:34.483Z,7.32
2024-03-05T05:21:38.628Z,7.53
2024-03-05T05:26:47.949Z,7.38
2024-03-05T05:31:51.919Z,6.90
2024-03-05T05:36:56.159Z,6.93
2024-03-05T05:42:01.733Z,7.03
2024-03-05T05:47:06.423Z,7.28
2024-03-05T05:57:16.153Z,7.10
2024-03-05T06:02:21.533Z,8.30
2024-03-05T06:07:25.919Z,7.07
2024-03-05T06:12:32.947Z,7.53
2024-03-05T06:17:36.941Z,7.50
2024-03-05T06:22:41.603Z,7.47
2024-03-05T06:33:10.529Z,7.00
2024-03-05T06:38:14.763Z,6.65
2024-03-05T06:43:22.822Z,7.57
2024-03-05T06:48:28.314Z,6.43
2024-03-05T06:53:49.855Z,6.75
2024-03-05T06:58:54.838Z,7.30
2024-03-05T07:04:00.589Z,6.90
2024-03-05T07:09:05.162Z,6.78
2024-03-05T07:14:09.589Z,6.80
2024-03-05T07:19:15.295Z,6.57
2024-03-05T07:24:19.291Z,5.75
2024-03-05T07:29:23.204Z,6.73
2024-03-05T07:34:28.582Z,5.75
2024-03-05T07:39:33.075Z,6.78
2024-03-05T07:44:39.015Z,6.70
2024-03-05T07:49:44.301Z,6.00
2024-03-05T07:54:48.539Z,5.05
2024-03-05T08:00:15.648Z,5.38
2024-03-05T08:05:22.713Z,5.55
2024-03-05T08:10:27.332Z,5.47
2024-03-05T08:15:31.490Z,5.47
2024-03-05T08:20:36.941Z,4.97
2024-03-05T08:25:58.481Z,4.60
2024-03-05T08:31:02.486Z,4.13
2024-03-05T08:36:10.078Z,4.47
2024-03-05T08:41:13.973Z,3.97
2024-03-05T08:46:17.977Z,3.93
2024-03-05T08:51:23.437Z,4.43
2024-03-05T08:56:27.345Z,3.90
2024-03-05T09:01:31.315Z,3.65
2024-03-05T09:06:37.061Z,4.07
2024-03-05T09:11:41.065Z,3.47
2024-03-05T09:16:45.350Z,3.63
2024-03-05T09:21:52.124Z,2.95
2024-03-05T09:26:56.041Z,2.90
2024-03-05T09:31:59.944Z,2.97
2024-03-05T09:37:05.382Z,2.90
2024-03-05T09:42:12.049Z,2.83
2024-03-05T09:47:17.735Z,2.70
2024-03-05T09:52:23.158Z,2.10
2024-03-05T09:57:30.382Z,2.13
2024-03-05T10:02:35.057Z,2.30
2024-03-05T10:07:40.770Z,1.85
2024-03-05T10:12:45.069Z,2.72
2024-03-05T10:17:51.681Z,2.33
2024-03-05T10:22:59.924Z,1.88
2024-03-05T10:28:05.627Z,2.00
2024-03-05T10:33:11.708Z,1.55
2024-03-05T10:38:19.500Z,1.70
2024-03-05T10:43:23.716Z,1.50
2024-03-05T10:48:28.854Z,1.50
2024-03-05T10:53:34.852Z,1.33
2024-03-05T10:58:56.716Z,1.33
2024-03-05T11:04:03.060Z,1.90
2024-03-05T11:09:09.601Z,1.45
2024-03-05T11:14:15.379Z,1.17
2024-03-05T11:19:19.726Z,1.38
2024-03-05T11:24:26.276Z,1.10
2024-03-05T11:29:38.784Z,1.10
2024-03-05T11:34:49.483Z,1.00
2024-03-05T11:39:54.902Z,1.10
2024-03-05T11:44:59.066Z,1.10
2024-03-05T11:50:06.688Z,0.90
2024-03-05T11:55:27.688Z,0.73
2024-03-05T12:00:31.605Z,0.90
2024-03-05T12:05:35.734Z,0.90
2024-03-05T12:10:42.381Z,1.20
2024-03-05T12:15:46.853Z,0.95
2024-03-05T12:20:50.836Z,0.70
2024-03-05T12:25:56.145Z,0.70
2024-03-05T12:31:00.268Z,0.70
2024-03-05T12:36:04.267Z,0.80
2024-03-05T12:41:11.224Z,0.70
2024-03-05T12:46:20.782Z,0.80
2024-03-05T12:51:24.968Z,0.90
2024-03-05T12:56:30.484Z,0.70
2024-03-05T13:01:34.463Z,0.90
2024-03-05T13:06:38.450Z,0.83
2024-03-05T13:11:44.423Z,0.87
2024-03-05T13:16:48.639Z,0.90
2024-03-05T13:21:52.945Z,0.70
2024-03-05T13:26:58.985Z,0.80
2024-03-05T13:32:03.024Z,0.90
2024-03-05T13:37:07.005Z,0.80
2024-03-05T13:42:12.688Z,0.70
2024-03-05T13:47:18.731Z,0.70
2024-03-05T13:52:24.159Z,0.80
2024-03-05T13:57:30.324Z,1.10
2024-03-05T14:02:34.438Z,1.20
2024-03-05T14:07:38.632Z,1.30
2024-03-05T14:12:44.137Z,1.10
2024-03-05T14:17:48.453Z,0.90
2024-03-05T14:22:52.531Z,1.30
2024-03-05T14:27:57.889Z,1.50
2024-03-05T14:33:56.191Z,1.30
2024-03-05T14:39:04.588Z,1.20
2024-03-05T14:44:12.445Z,1.33
2024-03-05T14:49:16.794Z,1.50
2024-03-05T14:54:20.732Z,1.55
2024-03-05T14:59:26.534Z,1.40
2024-03-05T15:04:30.722Z,1.42
2024-03-05T15:09:37.162Z,1.30
2024-03-05T15:14:44.359Z,1.30
2024-03-05T15:19:51.156Z,1.60
2024-03-05T15:24:55.007Z,1.80
2024-03-05T15:30:00.389Z,1.45
2024-03-05T15:35:04.986Z,1.98
2024-03-05T15:40:16.865Z,1.63
2024-03-05T15:45:23.017Z,1.58
2024-03-05T15:50:31.512Z,1.65
2024-03-05T15:55:40.507Z,1.70
2024-03-05T16:00:49.674Z,1.60
2024-03-05T16:06:00.782Z,1.70
2024-03-05T16:11:10.780Z,1.60
2024-03-05T16:16:17.169Z,1.30
2024-03-05T16:21:40.659Z,2.10
2024-03-05T16:26:46.205Z,1.60
2024-03-05T16:31:51.548Z,1.95
2024-03-05T16:36:55.465Z,1.55
2024-03-05T16:41:59.305Z,1.30
2024-03-05T16:47:04.878Z,1.50
2024-03-05T16:52:09.131Z,1.48
2024-03-05T16:57:13.182Z,1.60
2024-03-05T17:02:24.089Z,1.30
2024-03-05T17:07:32.751Z,1.52
2024-03-05T17:12:39.027Z,1.38
2024-03-05T17:17:56.034Z,1.40
2024-03-05T17:23:04.697Z,1.38
2024-03-05T17:28:13.595Z,1.80
2024-03-05T17:33:19.449Z,1.40
2024-03-05T17:38:23.419Z,1.42
2024-03-05T17:43:29.742Z,1.70
2024-03-05T17:48:35.913Z,1.50
2024-03-05T17:53:40.999Z,1.42
2024-03-05T17:58:45.757Z,1.27
2024-03-05T18:08:55.859Z,1.25
2024-03-05T18:14:00.857Z,0.98
2024-03-05T18:19:09.024Z,1.10
2024-03-05T18:24:13.774Z,1.17
2024-03-05T18:29:18.090Z,1.20
2024-03-05T18:34:25.488Z,1.27
2024-03-05T18:39:29.480Z,1.77
2024-03-05T18:44:33.378Z,1.50
2024-03-05T18:49:43.626Z,1.50
2024-03-05T18:54:47.766Z,1.75
2024-03-05T18:59:51.993Z,1.40
2024-03-05T19:05:06.809Z,1.50
2024-03-05T19:10:14.155Z,1.48
2024-03-05T19:15:18.942Z,1.58
2024-03-05T19:20:24.701Z,1.40
2024-03-05T19:25:29.765Z,1.20
2024-03-05T19:30:39.628Z,1.25
2024-03-05T19:35:45.501Z,1.20
2024-03-05T19:40:50.226Z,1.30
2024-03-05T19:45:54.291Z,1.20
2024-03-05T19:50:59.549Z,1.20
2024-03-05T19:56:05.344Z,1.38
2024-03-05T20:01:09.740Z,1.25
2024-03-05T20:06:15.130Z,1.25
2024-03-05T20:11:19.590Z,1.20
2024-03-05T20:16:23.544Z,1.30
2024-03-05T20:21:28.924Z,1.63
2024-03-05T20:26:33.019Z,1.30
2024-03-05T20:31:37.047Z,1.35
2024-03-05T20:36:42.523Z,1.40
2024-03-05T20:41:47.484Z,1.30
2024-03-05T20:46:51.371Z,1.20
2024-03-05T20:51:58.369Z,1.40
2024-03-05T20:57:02.555Z,1.13
2024-03-05T21:02:11.151Z,1.50
2024-03-05T21:07:16.820Z,1.10
2024-03-05T21:12:20.665Z,1.10
2024-03-05T21:17:26.250Z,1.77
2024-03-05T21:22:31.619Z,1.35
2024-03-05T21:27:36.418Z,1.30
2024-03-05T21:32:40.759Z,1.60
2024-03-05T21:37:47.696Z,1.40
2024-03-05T21:42:51.634Z,1.65
2024-03-05T21:47:55.569Z,1.53
2024-03-05T21:53:00.908Z,1.67
2024-03-05T21:58:05.145Z,1.55
2024-03-05T22:03:09.586Z,1.48
2024-03-05T22:08:15.002Z,1.67
2024-03-05T22:13:19.258Z,1.42
2024-03-05T22:18:23.157Z,1.60
2024-03-05T22:23:28.489Z,1.33
2024-03-05T22:28:32.693Z,1.50
2024-03-05T22:33:36.606Z,1.50
2024-03-05T22:38:41.882Z,1.40
2024-03-05T22:43:46.498Z,1.42
2024-03-05T22:53:55.741Z,2.00
2024-03-05T22:58:59.918Z,1.90
2024-03-05T23:04:03.866Z,1.30
2024-03-05T23:09:13.698Z,1.50
2024-03-05T23:14:18.269Z,1.60
2024-03-05T23:19:22.304Z,1.58
2024-03-05T23:24:27.581Z,1.55
2024-03-05T23:29:31.504Z,1.75
2024-03-05T23:34:35.902Z,1.30
2024-03-05T23:39:41.735Z,1.52
2024-03-05T23:44:45.926Z,1.50
2024-03-05T23:49:50.041Z,1.63
2024-03-05T23:54:58.134Z,1.33
